sensor_id;sensor_type;location;lat;lon;timestamp;temperature;humidity
26326;DHT22;14032;52.510;7.342;2023-06-22T00:01:52;19.60;99.90
26326;DHT22;14032;52.510;7.342;2023-06-22T00:04:18;19.60;99.90
26326;DHT22;14032;52.510;7.342;2023-06-22T00:06:43;19.60;99.90
26326;DHT22;14032;52.510;7.342;2023-06-22T00:09:09;19.60;99.90
26326;DHT22;14032;52.510;7.342;2023-06-22T00:11:36;19.60;99.90
26326;DHT22;14032;52.510;7.342;2023-06-22T00:14:02;19.50;99.90
26326;DHT22;14032;52.510;7.342;2023-06-22T00:16:28;19.50;99.90
26326;DHT22;14032;52.510;7.342;2023-06-22T00:18:54;19.50;99.90
26326;DHT22;14032;52.510;7.342;2023-06-22T00:21:19;19.50;99.90
26326;DHT22;14032;52.510;7.342;2023-06-22T00:23:46;19.40;99.90
26326;DHT22;14032;52.510;7.342;2023-06-22T00:26:13;19.40;99.90
26326;DHT22;14032;52.510;7.342;2023-06-22T00:28:38;19.40;99.90
26326;DHT22;14032;52.510;7.342;2023-06-22T00:31:04;19.30;99.90
26326;DHT22;14032;52.510;7.342;2023-06-22T00:33:30;19.30;99.90
26326;DHT22;14032;52.510;7.342;2023-06-22T00:35:55;19.30;99.90
26326;DHT22;14032;52.510;7.342;2023-06-22T00:38:21;19.20;99.90
26326;DHT22;14032;52.510;7.342;2023-06-22T00:40:46;19.30;99.90
26326;DHT22;14032;52.510;7.342;2023-06-22T00:43:12;19.20;99.90
26326;DHT22;14032;52.510;7.342;2023-06-22T00:45:38;19.20;99.90
26326;DHT22;14032;52.510;7.342;2023-06-22T00:48:03;19.10;99.90
26326;DHT22;14032;52.510;7.342;2023-06-22T00:50:32;19.00;99.90
26326;DHT22;14032;52.510;7.342;2023-06-22T00:53:06;19.00;99.90
26326;DHT22;14032;52.510;7.342;2023-06-22T00:55:37;19.00;99.90
26326;DHT22;14032;52.510;7.342;2023-06-22T00:58:04;18.90;99.90
26326;DHT22;14032;52.510;7.342;2023-06-22T01:00:33;18.90;99.90
26326;DHT22;14032;52.510;7.342;2023-06-22T01:02:59;18.90;99.90
26326;DHT22;14032;52.510;7.342;2023-06-22T01:05:25;18.80;99.90
26326;DHT22;14032;52.510;7.342;2023-06-22T01:11:07;18.80;99.90
26326;DHT22;14032;52.510;7.342;2023-06-22T01:13:56;18.80;99.90
26326;DHT22;14032;52.510;7.342;2023-06-22T01:16:29;18.80;99.90
26326;DHT22;14032;52.510;7.342;2023-06-22T01:18:57;18.80;99.90
26326;DHT22;14032;52.510;7.342;2023-06-22T01:21:28;18.80;99.90
26326;DHT22;14032;52.510;7.342;2023-06-22T01:24:23;18.70;99.90
26326;DHT22;14032;52.510;7.342;2023-06-22T01:26:54;18.70;99.90
26326;DHT22;14032;52.510;7.342;2023-06-22T01:29:23;18.70;99.90
26326;DHT22;14032;52.510;7.342;2023-06-22T01:31:50;18.70;99.90
26326;DHT22;14032;52.510;7.342;2023-06-22T01:34:16;18.80;99.90
26326;DHT22;14032;52.510;7.342;2023-06-22T01:36:43;18.80;99.90
26326;DHT22;14032;52.510;7.342;2023-06-22T01:39:09;18.70;99.90
26326;DHT22;14032;52.510;7.342;2023-06-22T01:41:37;18.70;99.90
26326;DHT22;14032;52.510;7.342;2023-06-22T01:44:05;18.70;99.90
26326;DHT22;14032;52.510;7.342;2023-06-22T01:46:34;18.60;99.90
26326;DHT22;14032;52.510;7.342;2023-06-22T01:49:00;18.60;99.90
26326;DHT22;14032;52.510;7.342;2023-06-22T01:51:26;18.60;99.90
26326;DHT22;14032;52.510;7.342;2023-06-22T01:53:52;18.60;99.90
26326;DHT22;14032;52.510;7.342;2023-06-22T01:56:17;18.50;99.90
26326;DHT22;14032;52.510;7.342;2023-06-22T01:58:52;18.50;99.90
26326;DHT22;14032;52.510;7.342;2023-06-22T02:01:26;18.40;99.90
26326;DHT22;14032;52.510;7.342;2023-06-22T02:04:36;18.40;99.90
26326;DHT22;14032;52.510;7.342;2023-06-22T02:07:06;18.40;99.90
26326;DHT22;14032;52.510;7.342;2023-06-22T02:09:35;18.30;99.90
26326;DHT22;14032;52.510;7.342;2023-06-22T02:12:03;18.30;99.90
26326;DHT22;14032;52.510;7.342;2023-06-22T02:14:30;18.30;99.90
26326;DHT22;14032;52.510;7.342;2023-06-22T02:16:56;18.30;99.90
26326;DHT22;14032;52.510;7.342;2023-06-22T02:19:24;18.20;99.90
26326;DHT22;14032;52.510;7.342;2023-06-22T02:21:51;18.30;99.90
26326;DHT22;14032;52.510;7.342;2023-06-22T02:24:16;18.20;99.90
26326;DHT22;14032;52.510;7.342;2023-06-22T02:26:43;18.20;99.90
26326;DHT22;14032;52.510;7.342;2023-06-22T02:29:10;18.10;99.90
26326;DHT22;14032;52.510;7.342;2023-06-22T02:31:42;18.10;99.90
26326;DHT22;14032;52.510;7.342;2023-06-22T02:34:08;18.10;99.90
26326;DHT22;14032;52.510;7.342;2023-06-22T02:36:34;18.10;99.90
26326;DHT22;14032;52.510;7.342;2023-06-22T02:39:00;18.10;99.90
26326;DHT22;14032;52.510;7.342;2023-06-22T02:41:27;18.10;99.90
26326;DHT22;14032;52.510;7.342;2023-06-22T02:43:52;18.10;99.90
26326;DHT22;14032;52.510;7.342;2023-06-22T02:46:18;18.10;99.90
26326;DHT22;14032;52.510;7.342;2023-06-22T02:48:44;18.10;99.90
26326;DHT22;14032;52.510;7.342;2023-06-22T02:51:09;18.20;99.90
26326;DHT22;14032;52.510;7.342;2023-06-22T02:53:35;18.10;99.90
26326;DHT22;14032;52.510;7.342;2023-06-22T02:56:02;18.10;99.90
26326;DHT22;14032;52.510;7.342;2023-06-22T02:58:31;18.10;99.90
26326;DHT22;14032;52.510;7.342;2023-06-22T03:01:04;18.10;99.90
26326;DHT22;14032;52.510;7.342;2023-06-22T03:03:31;18.00;99.90
26326;DHT22;14032;52.510;7.342;2023-06-22T03:05:56;18.00;99.90
26326;DHT22;14032;52.510;7.342;2023-06-22T03:08:22;18.10;99.90
26326;DHT22;14032;52.510;7.342;2023-06-22T03:10:47;18.10;99.90
26326;DHT22;14032;52.510;7.342;2023-06-22T03:13:13;18.00;99.90
26326;DHT22;14032;52.510;7.342;2023-06-22T03:15:39;18.00;99.90
26326;DHT22;14032;52.510;7.342;2023-06-22T03:18:04;17.90;99.90
26326;DHT22;14032;52.510;7.342;2023-06-22T03:20:30;17.90;99.90
26326;DHT22;14032;52.510;7.342;2023-06-22T03:22:59;17.80;99.90
26326;DHT22;14032;52.510;7.342;2023-06-22T03:25:24;17.80;99.90
26326;DHT22;14032;52.510;7.342;2023-06-22T03:27:50;17.80;99.90
26326;DHT22;14032;52.510;7.342;2023-06-22T03:30:15;17.80;99.90
26326;DHT22;14032;52.510;7.342;2023-06-22T03:32:41;17.80;99.90
26326;DHT22;14032;52.510;7.342;2023-06-22T03:35:08;17.80;99.90
26326;DHT22;14032;52.510;7.342;2023-06-22T03:37:34;17.80;99.90
26326;DHT22;14032;52.510;7.342;2023-06-22T03:39:59;17.70;99.90
26326;DHT22;14032;52.510;7.342;2023-06-22T03:42:26;17.70;99.90
26326;DHT22;14032;52.510;7.342;2023-06-22T03:44:51;17.70;99.90
26326;DHT22;14032;52.510;7.342;2023-06-22T03:47:17;17.70;99.90
26326;DHT22;14032;52.510;7.342;2023-06-22T03:49:43;17.80;99.90
26326;DHT22;14032;52.510;7.342;2023-06-22T03:52:09;17.70;99.90
26326;DHT22;14032;52.510;7.342;2023-06-22T03:54:36;17.70;99.90
26326;DHT22;14032;52.510;7.342;2023-06-22T03:57:01;17.70;99.90
26326;DHT22;14032;52.510;7.342;2023-06-22T03:59:27;17.70;99.90
26326;DHT22;14032;52.510;7.342;2023-06-22T04:01:53;17.70;99.90
26326;DHT22;14032;52.510;7.342;2023-06-22T04:04:18;17.70;99.90
26326;DHT22;14032;52.510;7.342;2023-06-22T04:06:44;17.70;99.90
26326;DHT22;14032;52.510;7.342;2023-06-22T04:09:10;17.80;99.90
26326;DHT22;14032;52.510;7.342;2023-06-22T04:11:36;17.70;99.90
26326;DHT22;14032;52.510;7.342;2023-06-22T04:14:01;17.80;99.90
26326;DHT22;14032;52.510;7.342;2023-06-22T04:16:27;17.80;99.90
26326;DHT22;14032;52.510;7.342;2023-06-22T04:18:52;17.70;99.90
26326;DHT22;14032;52.510;7.342;2023-06-22T04:21:18;17.80;99.90
26326;DHT22;14032;52.510;7.342;2023-06-22T04:23:47;17.80;99.90
26326;DHT22;14032;52.510;7.342;2023-06-22T04:26:13;17.80;99.90
26326;DHT22;14032;52.510;7.342;2023-06-22T04:28:41;17.80;99.90
26326;DHT22;14032;52.510;7.342;2023-06-22T04:31:07;17.90;99.90
26326;DHT22;14032;52.510;7.342;2023-06-22T04:33:33;17.90;99.90
26326;DHT22;14032;52.510;7.342;2023-06-22T04:35:59;18.00;99.90
26326;DHT22;14032;52.510;7.342;2023-06-22T04:38:26;18.00;99.90
26326;DHT22;14032;52.510;7.342;2023-06-22T04:40:52;18.00;99.90
26326;DHT22;14032;52.510;7.342;2023-06-22T04:43:21;18.10;99.90
26326;DHT22;14032;52.510;7.342;2023-06-22T04:45:47;18.10;99.90
26326;DHT22;14032;52.510;7.342;2023-06-22T04:48:17;18.20;99.90
26326;DHT22;14032;52.510;7.342;2023-06-22T04:50:43;18.20;99.90
26326;DHT22;14032;52.510;7.342;2023-06-22T04:53:09;18.20;99.90
26326;DHT22;14032;52.510;7.342;2023-06-22T04:55:38;18.30;99.90
26326;DHT22;14032;52.510;7.342;2023-06-22T04:58:07;18.30;99.90
26326;DHT22;14032;52.510;7.342;2023-06-22T05:00:32;18.30;99.90
26326;DHT22;14032;52.510;7.342;2023-06-22T05:03:01;18.30;99.90
26326;DHT22;14032;52.510;7.342;2023-06-22T05:05:29;18.40;99.90
26326;DHT22;14032;52.510;7.342;2023-06-22T05:07:56;18.30;99.90
26326;DHT22;14032;52.510;7.342;2023-06-22T05:10:25;18.40;99.90
26326;DHT22;14032;52.510;7.342;2023-06-22T05:12:51;18.30;99.90
26326;DHT22;14032;52.510;7.342;2023-06-22T05:15:17;18.30;99.90
26326;DHT22;14032;52.510;7.342;2023-06-22T05:17:45;18.30;99.90
26326;DHT22;14032;52.510;7.342;2023-06-22T05:20:11;18.30;99.90
26326;DHT22;14032;52.510;7.342;2023-06-22T05:22:37;18.30;99.90
26326;DHT22;14032;52.510;7.342;2023-06-22T05:25:05;18.20;99.90
26326;DHT22;14032;52.510;7.342;2023-06-22T05:27:31;18.30;99.90
26326;DHT22;14032;52.510;7.342;2023-06-22T05:29:57;18.50;99.90
26326;DHT22;14032;52.510;7.342;2023-06-22T05:32:22;18.60;99.90
26326;DHT22;14032;52.510;7.342;2023-06-22T05:34:48;18.70;99.90
26326;DHT22;14032;52.510;7.342;2023-06-22T05:37:13;18.90;99.90
26326;DHT22;14032;52.510;7.342;2023-06-22T05:39:39;19.10;99.90
26326;DHT22;14032;52.510;7.342;2023-06-22T05:42:06;19.30;99.90
26326;DHT22;14032;52.510;7.342;2023-06-22T05:44:32;19.40;99.90
26326;DHT22;14032;52.510;7.342;2023-06-22T05:46:58;19.50;99.90
26326;DHT22;14032;52.510;7.342;2023-06-22T05:49:24;19.60;99.90
26326;DHT22;14032;52.510;7.342;2023-06-22T05:51:55;19.60;99.90
26326;DHT22;14032;52.510;7.342;2023-06-22T05:54:21;19.70;99.90
26326;DHT22;14032;52.510;7.342;2023-06-22T05:56:46;19.90;99.90
26326;DHT22;14032;52.510;7.342;2023-06-22T05:59:12;19.90;99.90
26326;DHT22;14032;52.510;7.342;2023-06-22T06:01:43;20.00;99.90
26326;DHT22;14032;52.510;7.342;2023-06-22T06:04:09;20.10;99.90
26326;DHT22;14032;52.510;7.342;2023-06-22T06:06:34;20.10;99.90
26326;DHT22;14032;52.510;7.342;2023-06-22T06:09:03;20.20;99.90
26326;DHT22;14032;52.510;7.342;2023-06-22T06:11:29;20.30;99.90
26326;DHT22;14032;52.510;7.342;2023-06-22T06:13:55;20.40;99.90
26326;DHT22;14032;52.510;7.342;2023-06-22T06:16:21;20.50;99.90
26326;DHT22;14032;52.510;7.342;2023-06-22T06:18:47;20.50;99.90
26326;DHT22;14032;52.510;7.342;2023-06-22T06:21:14;20.60;99.90
26326;DHT22;14032;52.510;7.342;2023-06-22T06:23:39;20.60;99.90
26326;DHT22;14032;52.510;7.342;2023-06-22T06:26:05;20.70;99.90
26326;DHT22;14032;52.510;7.342;2023-06-22T06:28:32;20.80;99.90
26326;DHT22;14032;52.510;7.342;2023-06-22T06:30:58;20.90;99.90
26326;DHT22;14032;52.510;7.342;2023-06-22T06:33:23;21.00;99.90
26326;DHT22;14032;52.510;7.342;2023-06-22T06:35:49;21.10;99.90
26326;DHT22;14032;52.510;7.342;2023-06-22T06:38:15;21.30;99.90
26326;DHT22;14032;52.510;7.342;2023-06-22T06:40:40;21.50;99.90
26326;DHT22;14032;52.510;7.342;2023-06-22T06:43:06;21.60;99.90
26326;DHT22;14032;52.510;7.342;2023-06-22T06:45:32;21.70;99.90
26326;DHT22;14032;52.510;7.342;2023-06-22T06:48:00;21.80;99.90
26326;DHT22;14032;52.510;7.342;2023-06-22T06:50:25;21.80;99.90
26326;DHT22;14032;52.510;7.342;2023-06-22T06:52:51;21.90;99.90
26326;DHT22;14032;52.510;7.342;2023-06-22T06:55:17;22.00;99.90
26326;DHT22;14032;52.510;7.342;2023-06-22T06:57:43;22.10;99.90
26326;DHT22;14032;52.510;7.342;2023-06-22T07:00:12;22.20;99.90
26326;DHT22;14032;52.510;7.342;2023-06-22T07:02:45;22.50;99.90
26326;DHT22;14032;52.510;7.342;2023-06-22T07:05:13;22.60;99.90
26326;DHT22;14032;52.510;7.342;2023-06-22T07:07:38;22.80;99.90
26326;DHT22;14032;52.510;7.342;2023-06-22T07:10:05;23.00;99.90
26326;DHT22;14032;52.510;7.342;2023-06-22T07:12:31;23.00;99.90
26326;DHT22;14032;52.510;7.342;2023-06-22T07:15:07;23.00;99.90
26326;DHT22;14032;52.510;7.342;2023-06-22T07:17:34;23.10;99.90
26326;DHT22;14032;52.510;7.342;2023-06-22T07:20:01;23.20;99.90
26326;DHT22;14032;52.510;7.342;2023-06-22T07:22:26;23.30;99.90
26326;DHT22;14032;52.510;7.342;2023-06-22T07:24:52;23.30;99.90
26326;DHT22;14032;52.510;7.342;2023-06-22T07:27:17;23.40;99.90
26326;DHT22;14032;52.510;7.342;2023-06-22T07:29:46;23.60;99.90
26326;DHT22;14032;52.510;7.342;2023-06-22T07:32:13;23.70;99.90
26326;DHT22;14032;52.510;7.342;2023-06-22T07:34:39;23.80;99.90
26326;DHT22;14032;52.510;7.342;2023-06-22T07:37:04;23.80;99.90
26326;DHT22;14032;52.510;7.342;2023-06-22T07:39:30;23.90;99.90
26326;DHT22;14032;52.510;7.342;2023-06-22T07:41:56;23.90;99.90
26326;DHT22;14032;52.510;7.342;2023-06-22T07:44:22;24.00;99.90
26326;DHT22;14032;52.510;7.342;2023-06-22T07:46:47;24.10;99.90
26326;DHT22;14032;52.510;7.342;2023-06-22T07:49:13;24.10;99.90
26326;DHT22;14032;52.510;7.342;2023-06-22T07:51:39;24.30;99.90
26326;DHT22;14032;52.510;7.342;2023-06-22T07:54:04;24.30;99.90
26326;DHT22;14032;52.510;7.342;2023-06-22T07:56:30;24.30;99.90
26326;DHT22;14032;52.510;7.342;2023-06-22T07:58:55;24.20;99.90
26326;DHT22;14032;52.510;7.342;2023-06-22T08:01:23;24.30;99.90
26326;DHT22;14032;52.510;7.342;2023-06-22T08:03:49;24.50;99.90
26326;DHT22;14032;52.510;7.342;2023-06-22T08:06:15;24.60;99.90
26326;DHT22;14032;52.510;7.342;2023-06-22T08:08:41;24.80;99.90
26326;DHT22;14032;52.510;7.342;2023-06-22T08:11:08;24.90;99.90
26326;DHT22;14032;52.510;7.342;2023-06-22T08:13:33;24.90;99.90
26326;DHT22;14032;52.510;7.342;2023-06-22T08:15:59;25.10;99.90
26326;DHT22;14032;52.510;7.342;2023-06-22T08:18:25;25.10;99.90
26326;DHT22;14032;52.510;7.342;2023-06-22T08:20:50;24.90;99.90
26326;DHT22;14032;52.510;7.342;2023-06-22T08:23:16;24.90;99.90
26326;DHT22;14032;52.510;7.342;2023-06-22T08:25:42;25.10;99.90
26326;DHT22;14032;52.510;7.342;2023-06-22T08:28:07;25.00;99.90
26326;DHT22;14032;52.510;7.342;2023-06-22T08:30:33;24.80;99.90
26326;DHT22;14032;52.510;7.342;2023-06-22T08:32:59;24.80;99.90
26326;DHT22;14032;52.510;7.342;2023-06-22T08:35:24;24.80;99.90
26326;DHT22;14032;52.510;7.342;2023-06-22T08:37:50;24.80;99.90
26326;DHT22;14032;52.510;7.342;2023-06-22T08:40:18;24.80;99.90
26326;DHT22;14032;52.510;7.342;2023-06-22T08:42:45;24.90;99.90
26326;DHT22;14032;52.510;7.342;2023-06-22T08:45:12;25.00;99.90
26326;DHT22;14032;52.510;7.342;2023-06-22T08:47:38;25.10;99.90
26326;DHT22;14032;52.510;7.342;2023-06-22T08:50:04;25.10;99.90
26326;DHT22;14032;52.510;7.342;2023-06-22T08:52:31;25.30;99.90
26326;DHT22;14032;52.510;7.342;2023-06-22T08:54:56;25.40;99.90
26326;DHT22;14032;52.510;7.342;2023-06-22T08:57:23;25.50;99.90
26326;DHT22;14032;52.510;7.342;2023-06-22T08:59:49;25.70;99.90
26326;DHT22;14032;52.510;7.342;2023-06-22T09:02:17;25.70;99.90
26326;DHT22;14032;52.510;7.342;2023-06-22T09:04:43;25.60;99.90
26326;DHT22;14032;52.510;7.342;2023-06-22T09:07:08;25.50;99.90
26326;DHT22;14032;52.510;7.342;2023-06-22T09:09:34;25.30;99.90
26326;DHT22;14032;52.510;7.342;2023-06-22T09:11:59;25.10;99.90
26326;DHT22;14032;52.510;7.342;2023-06-22T09:14:25;24.90;99.90
26326;DHT22;14032;52.510;7.342;2023-06-22T09:16:51;24.80;99.90
26326;DHT22;14032;52.510;7.342;2023-06-22T09:19:17;24.70;99.90
26326;DHT22;14032;52.510;7.342;2023-06-22T09:21:42;24.70;99.90
26326;DHT22;14032;52.510;7.342;2023-06-22T09:24:08;24.70;99.90
26326;DHT22;14032;52.510;7.342;2023-06-22T09:26:34;24.60;99.90
26326;DHT22;14032;52.510;7.342;2023-06-22T09:28:59;24.50;99.90
26326;DHT22;14032;52.510;7.342;2023-06-22T09:31:25;24.50;99.90
26326;DHT22;14032;52.510;7.342;2023-06-22T09:33:54;24.50;99.90
26326;DHT22;14032;52.510;7.342;2023-06-22T09:36:23;24.50;99.90
26326;DHT22;14032;52.510;7.342;2023-06-22T09:38:49;24.60;99.90
26326;DHT22;14032;52.510;7.342;2023-06-22T09:41:24;24.60;99.90
26326;DHT22;14032;52.510;7.342;2023-06-22T09:43:50;24.70;99.90
26326;DHT22;14032;52.510;7.342;2023-06-22T09:46:16;24.80;99.90
26326;DHT22;14032;52.510;7.342;2023-06-22T09:48:42;24.90;99.90
26326;DHT22;14032;52.510;7.342;2023-06-22T09:51:07;24.90;99.90
26326;DHT22;14032;52.510;7.342;2023-06-22T09:53:33;25.10;99.90
26326;DHT22;14032;52.510;7.342;2023-06-22T09:56:03;25.20;99.90
26326;DHT22;14032;52.510;7.342;2023-06-22T09:58:28;25.30;99.90
26326;DHT22;14032;52.510;7.342;2023-06-22T10:00:54;25.50;99.90
26326;DHT22;14032;52.510;7.342;2023-06-22T10:03:20;25.50;99.90
26326;DHT22;14032;52.510;7.342;2023-06-22T10:05:46;25.50;99.90
26326;DHT22;14032;52.510;7.342;2023-06-22T10:08:11;25.50;99.90
26326;DHT22;14032;52.510;7.342;2023-06-22T10:10:37;25.50;99.90
26326;DHT22;14032;52.510;7.342;2023-06-22T10:13:08;25.30;99.90
26326;DHT22;14032;52.510;7.342;2023-06-22T10:15:38;25.30;99.90
26326;DHT22;14032;52.510;7.342;2023-06-22T10:18:03;25.20;99.90
26326;DHT22;14032;52.510;7.342;2023-06-22T10:20:29;25.20;99.90
26326;DHT22;14032;52.510;7.342;2023-06-22T10:22:55;25.10;99.90
26326;DHT22;14032;52.510;7.342;2023-06-22T10:25:21;25.10;99.90
26326;DHT22;14032;52.510;7.342;2023-06-22T10:27:47;25.00;99.90
26326;DHT22;14032;52.510;7.342;2023-06-22T10:30:13;24.90;99.90
26326;DHT22;14032;52.510;7.342;2023-06-22T10:32:40;24.90;99.90
26326;DHT22;14032;52.510;7.342;2023-06-22T10:35:06;24.90;99.90
26326;DHT22;14032;52.510;7.342;2023-06-22T10:37:31;24.80;99.90
26326;DHT22;14032;52.510;7.342;2023-06-22T10:39:57;24.80;99.90
26326;DHT22;14032;52.510;7.342;2023-06-22T10:44:58;24.80;99.90
26326;DHT22;14032;52.510;7.342;2023-06-22T10:47:24;24.90;99.90
26326;DHT22;14032;52.510;7.342;2023-06-22T10:49:49;24.80;99.90
26326;DHT22;14032;52.510;7.342;2023-06-22T10:52:15;24.80;99.90
26326;DHT22;14032;52.510;7.342;2023-06-22T10:54:41;24.80;99.90
26326;DHT22;14032;52.510;7.342;2023-06-22T10:57:07;24.70;99.90
26326;DHT22;14032;52.510;7.342;2023-06-22T10:59:32;24.70;99.90
26326;DHT22;14032;52.510;7.342;2023-06-22T11:01:58;24.70;99.90
26326;DHT22;14032;52.510;7.342;2023-06-22T11:04:24;24.70;99.90
26326;DHT22;14032;52.510;7.342;2023-06-22T11:06:50;24.70;99.90
26326;DHT22;14032;52.510;7.342;2023-06-22T11:09:16;24.60;99.90
26326;DHT22;14032;52.510;7.342;2023-06-22T11:11:49;24.60;99.90
26326;DHT22;14032;52.510;7.342;2023-06-22T11:14:15;24.60;99.90
26326;DHT22;14032;52.510;7.342;2023-06-22T11:16:40;24.60;99.90
26326;DHT22;14032;52.510;7.342;2023-06-22T11:19:06;24.50;99.90
26326;DHT22;14032;52.510;7.342;2023-06-22T11:21:32;24.50;99.90
26326;DHT22;14032;52.510;7.342;2023-06-22T11:23:58;24.50;99.90
26326;DHT22;14032;52.510;7.342;2023-06-22T11:26:24;24.50;99.90
26326;DHT22;14032;52.510;7.342;2023-06-22T11:34:03;24.50;99.90
26326;DHT22;14032;52.510;7.342;2023-06-22T11:36:29;24.50;99.90
26326;DHT22;14032;52.510;7.342;2023-06-22T11:38:54;24.50;99.90
26326;DHT22;14032;52.510;7.342;2023-06-22T11:41:20;24.50;99.90
26326;DHT22;14032;52.510;7.342;2023-06-22T11:43:46;24.50;99.90
26326;DHT22;14032;52.510;7.342;2023-06-22T11:46:11;24.50;99.90
26326;DHT22;14032;52.510;7.342;2023-06-22T11:48:37;24.50;99.90
26326;DHT22;14032;52.510;7.342;2023-06-22T11:51:03;24.50;99.90
26326;DHT22;14032;52.510;7.342;2023-06-22T11:53:29;24.50;99.90
26326;DHT22;14032;52.510;7.342;2023-06-22T11:55:54;24.50;99.90
26326;DHT22;14032;52.510;7.342;2023-06-22T11:58:21;24.50;99.90
26326;DHT22;14032;52.510;7.342;2023-06-22T12:00:48;24.50;99.90
26326;DHT22;14032;52.510;7.342;2023-06-22T12:03:13;24.50;99.90
26326;DHT22;14032;52.510;7.342;2023-06-22T12:05:40;24.60;99.90
26326;DHT22;14032;52.510;7.342;2023-06-22T12:08:06;24.60;99.90
26326;DHT22;14032;52.510;7.342;2023-06-22T12:10:31;24.50;99.90
26326;DHT22;14032;52.510;7.342;2023-06-22T12:12:57;24.50;99.90
26326;DHT22;14032;52.510;7.342;2023-06-22T12:15:25;24.50;99.90
26326;DHT22;14032;52.510;7.342;2023-06-22T12:17:50;24.40;99.90
26326;DHT22;14032;52.510;7.342;2023-06-22T12:20:16;24.50;99.90
26326;DHT22;14032;52.510;7.342;2023-06-22T12:22:43;24.40;99.90
26326;DHT22;14032;52.510;7.342;2023-06-22T12:25:08;24.30;99.90
26326;DHT22;14032;52.510;7.342;2023-06-22T12:27:35;24.30;99.90
26326;DHT22;14032;52.510;7.342;2023-06-22T12:30:01;24.30;99.90
26326;DHT22;14032;52.510;7.342;2023-06-22T12:32:26;24.20;99.90
26326;DHT22;14032;52.510;7.342;2023-06-22T12:34:52;24.20;99.90
26326;DHT22;14032;52.510;7.342;2023-06-22T12:37:18;24.20;99.90
26326;DHT22;14032;52.510;7.342;2023-06-22T12:39:43;24.10;99.90
26326;DHT22;14032;52.510;7.342;2023-06-22T12:42:09;24.10;99.90
26326;DHT22;14032;52.510;7.342;2023-06-22T12:44:37;24.10;99.90
26326;DHT22;14032;52.510;7.342;2023-06-22T12:47:03;24.10;99.90
26326;DHT22;14032;52.510;7.342;2023-06-22T12:49:29;24.10;99.90
26326;DHT22;14032;52.510;7.342;2023-06-22T12:51:55;24.10;99.90
26326;DHT22;14032;52.510;7.342;2023-06-22T12:54:20;24.10;99.90
26326;DHT22;14032;52.510;7.342;2023-06-22T12:56:46;24.00;99.90
26326;DHT22;14032;52.510;7.342;2023-06-22T12:59:12;24.00;99.90
26326;DHT22;14032;52.510;7.342;2023-06-22T13:01:38;23.90;99.90
26326;DHT22;14032;52.510;7.342;2023-06-22T13:04:04;23.90;99.90
26326;DHT22;14032;52.510;7.342;2023-06-22T13:06:29;23.80;99.90
26326;DHT22;14032;52.510;7.342;2023-06-22T13:08:55;23.80;99.90
26326;DHT22;14032;52.510;7.342;2023-06-22T13:11:20;23.80;99.90
26326;DHT22;14032;52.510;7.342;2023-06-22T13:13:46;23.70;99.90
26326;DHT22;14032;52.510;7.342;2023-06-22T13:16:12;23.70;99.90
26326;DHT22;14032;52.510;7.342;2023-06-22T13:18:38;23.70;99.90
26326;DHT22;14032;52.510;7.342;2023-06-22T13:23:39;23.60;99.90
26326;DHT22;14032;52.510;7.342;2023-06-22T13:26:04;23.60;99.90
26326;DHT22;14032;52.510;7.342;2023-06-22T13:28:30;23.60;99.90
26326;DHT22;14032;52.510;7.342;2023-06-22T13:30:55;23.50;99.90
26326;DHT22;14032;52.510;7.342;2023-06-22T13:33:21;23.40;99.90
26326;DHT22;14032;52.510;7.342;2023-06-22T13:35:46;23.30;99.90
26326;DHT22;14032;52.510;7.342;2023-06-22T13:38:12;23.10;99.90
26326;DHT22;14032;52.510;7.342;2023-06-22T13:40:38;22.90;99.90
26326;DHT22;14032;52.510;7.342;2023-06-22T13:43:04;22.80;99.90
26326;DHT22;14032;52.510;7.342;2023-06-22T13:45:30;22.60;99.90
26326;DHT22;14032;52.510;7.342;2023-06-22T13:47:55;22.50;99.90
26326;DHT22;14032;52.510;7.342;2023-06-22T13:50:21;22.30;99.90
26326;DHT22;14032;52.510;7.342;2023-06-22T13:52:47;22.20;99.90
26326;DHT22;14032;52.510;7.342;2023-06-22T13:55:12;22.10;99.90
26326;DHT22;14032;52.510;7.342;2023-06-22T13:57:40;22.10;99.90
26326;DHT22;14032;52.510;7.342;2023-06-22T14:00:06;22.00;99.90
26326;DHT22;14032;52.510;7.342;2023-06-22T14:02:32;21.90;99.90
26326;DHT22;14032;52.510;7.342;2023-06-22T14:04:57;22.00;99.90
26326;DHT22;14032;52.510;7.342;2023-06-22T14:07:23;22.00;99.90
26326;DHT22;14032;52.510;7.342;2023-06-22T14:09:50;22.00;99.90
26326;DHT22;14032;52.510;7.342;2023-06-22T14:12:15;22.00;99.90
26326;DHT22;14032;52.510;7.342;2023-06-22T14:14:43;22.00;99.90
26326;DHT22;14032;52.510;7.342;2023-06-22T14:17:09;22.00;99.90
26326;DHT22;14032;52.510;7.342;2023-06-22T14:19:36;22.00;99.90
26326;DHT22;14032;52.510;7.342;2023-06-22T14:27:19;21.80;99.90
26326;DHT22;14032;52.510;7.342;2023-06-22T14:29:45;21.70;99.90
26326;DHT22;14032;52.510;7.342;2023-06-22T14:32:10;21.60;99.90
26326;DHT22;14032;52.510;7.342;2023-06-22T14:39:48;21.40;99.90
26326;DHT22;14032;52.510;7.342;2023-06-22T14:47:22;21.50;99.90
26326;DHT22;14032;52.510;7.342;2023-06-22T14:49:48;21.50;99.90
26326;DHT22;14032;52.510;7.342;2023-06-22T14:52:14;21.50;99.90
26326;DHT22;14032;52.510;7.342;2023-06-22T14:54:40;21.50;99.90
26326;DHT22;14032;52.510;7.342;2023-06-22T14:57:06;21.50;99.90
26326;DHT22;14032;52.510;7.342;2023-06-22T14:59:32;21.50;99.90
26326;DHT22;14032;52.510;7.342;2023-06-22T15:56:16;21.90;99.90
26326;DHT22;14032;52.510;7.342;2023-06-22T15:58:42;21.90;99.90
26326;DHT22;14032;52.510;7.342;2023-06-22T16:01:07;21.90;99.90
26326;DHT22;14032;52.510;7.342;2023-06-22T16:03:34;22.00;99.90
26326;DHT22;14032;52.510;7.342;2023-06-22T16:06:00;22.00;99.90
26326;DHT22;14032;52.510;7.342;2023-06-22T16:08:25;22.00;99.90
26326;DHT22;14032;52.510;7.342;2023-06-22T16:10:53;22.00;99.90
26326;DHT22;14032;52.510;7.342;2023-06-22T16:13:19;22.00;99.90
26326;DHT22;14032;52.510;7.342;2023-06-22T16:15:45;22.00;99.90
26326;DHT22;14032;52.510;7.342;2023-06-22T16:18:10;22.00;99.90
26326;DHT22;14032;52.510;7.342;2023-06-22T16:20:36;22.00;99.90
26326;DHT22;14032;52.510;7.342;2023-06-22T16:23:01;22.00;99.90
26326;DHT22;14032;52.510;7.342;2023-06-22T16:25:27;22.00;99.90
26326;DHT22;14032;52.510;7.342;2023-06-22T16:27:53;22.00;99.90
26326;DHT22;14032;52.510;7.342;2023-06-22T16:30:19;22.00;99.90
26326;DHT22;14032;52.510;7.342;2023-06-22T16:32:52;22.00;99.90
26326;DHT22;14032;52.510;7.342;2023-06-22T16:35:22;22.00;99.90
26326;DHT22;14032;52.510;7.342;2023-06-22T16:37:48;22.00;99.90
26326;DHT22;14032;52.510;7.342;2023-06-22T16:40:14;22.10;99.90
26326;DHT22;14032;52.510;7.342;2023-06-22T16:42:40;22.00;99.90
26326;DHT22;14032;52.510;7.342;2023-06-22T16:45:06;22.10;99.90
26326;DHT22;14032;52.510;7.342;2023-06-22T16:47:32;22.00;99.90
26326;DHT22;14032;52.510;7.342;2023-06-22T16:50:00;22.00;99.90